KLWT/LWT METAR and TAF weather

Enter ICAO airport designator
Station Type Date Time Source
KLWT METAR 2024/02/26 18:01 UTC NOAA

KLWT 261801Z AUTO 33006G16KT 1/2SM SN FZFG OVC007 M02/M03 A2942 RMK AO2 P0000 T10171033


Station Type Date Time Source
KLWT Decoded METAR 2024/02/26 18:01 UTC NOAA

LEWISTOWN MUNICIPAL AIRPORT , MT, United States (KLWT) 47-03N 109-27W
Feb 26, 2024 - 01:01 PM EST / 2024.02.26 1801 UTC
Wind: from the NNW (330 degrees) at 7 MPH (6 KT) gusting to 18 MPH (16 KT):0
Visibility: 1/2 mile(s):0
Sky conditions: overcast
Weather: snow; freezing fog
Precipitation last hour: A trace
Temperature: 28.9 F (-1.7 C)
Windchill: 21 F (-6 C):1
Dew Point: 26.1 F (-3.3 C)
Relative Humidity: 88%
Pressure (altimeter): 29.42 in. Hg (996 hPa)
ob: KLWT 261801Z AUTO 33006G16KT 1/2SM SN FZFG OVC007 M02/M03 A2942 RMK AO2 P0000 T10171033
cycle: 18

Station Type Date Time Source
KLWT TAF 2024/02/26 18:33 UTC NOAA